Everglades Natl Park, Florida
Current Conditions -  °F | °C
As of 1:58 PM on Monday 20 Oct 2014 (Local Time) from KHST Reporting Station
Few Clouds Few Clouds  
Wind Chill: 83°   Ceiling: Unl
Heat Index: 86°   Visibility: 10mi
Dew Point: 69°   Wind: 13mph
Humidity: 61%   Direction: 80°E
Pressure: 29.97"   Gusts: NA
Location:  25.45°N, 80.88°W
Report Text: KHST 201758Z AUTO 08011KT 10SM FEW037 28/20 A2997 RMK AO2 SLP152 60000 T02840203 10293 20219 57019
Loading
Personal Weather Stations






























Interactive Weather Map
Tropical Storm Tracking
New forecast layout! Learn more

10-Day Weather Forecast

Advertisements
Track Severe Weather on mobile